Terminal Aerodrome Forecast
Issued by NWS Amarillo, TX

Home | Current Version | Previous Version | Text Only | Print | Product List | Glossary On
Versions: 1 2 3 4 5 6 7 8 9 10 11 12 13 14 15 16 17
823
FTUS44 KAMA 191734
TAFAMA
TAF
KAMA 191734Z 1918/2018 17017G27KT P6SM SCT010 OVC300
      TEMPO 1918/1919 BKN010
     FM192000 18017G27KT P6SM SCT040 OVC300
     FM200100 20012KT P6SM SCT100 BKN300
     FM200800 25012KT P6SM SCT300
     FM201500 32014KT P6SM SKC=

USA.gov is the U.S. government's official web portal to all federal, state and local government web resources and services.